createdAt,value
2023-04-16T00:01:05.751Z,7.96
2023-04-16T00:03:34.060Z,7.91
2023-04-16T00:06:02.254Z,7.88
2023-04-16T00:08:30.367Z,7.84
2023-04-16T00:10:59.813Z,7.92
2023-04-16T00:13:27.972Z,7.90
2023-04-16T00:15:55.981Z,7.77
2023-04-16T00:18:23.983Z,7.75
2023-04-16T00:20:53.546Z,7.79
2023-04-16T00:23:21.601Z,7.75
2023-04-16T00:25:49.579Z,7.77
2023-04-16T00:28:18.892Z,7.78
2023-04-16T00:30:46.856Z,7.73
2023-04-16T00:33:15.848Z,7.74
2023-04-16T00:35:46.222Z,7.79
2023-04-16T00:38:14.727Z,7.73
2023-04-16T00:40:42.733Z,7.68
2023-04-16T00:43:10.815Z,7.69
2023-04-16T00:45:40.350Z,7.61
2023-04-16T00:48:08.312Z,7.64
2023-04-16T00:50:36.534Z,7.68
2023-04-16T00:53:04.542Z,7.68
2023-04-16T00:55:32.796Z,7.81
2023-04-16T00:58:00.743Z,7.86
2023-04-16T01:00:28.700Z,7.88
2023-04-16T01:03:01.369Z,7.73
2023-04-16T01:05:29.724Z,7.73
2023-04-16T01:08:00.623Z,7.82
2023-04-16T01:10:28.684Z,7.88
2023-04-16T01:12:56.611Z,7.97
2023-04-16T01:15:24.643Z,8.01
2023-04-16T01:17:52.716Z,7.86
2023-04-16T01:20:22.197Z,7.82
2023-04-16T01:22:51.757Z,7.94
2023-04-16T01:25:19.777Z,7.94
2023-04-16T01:27:50.799Z,7.79
2023-04-16T01:30:21.611Z,7.83
2023-04-16T01:32:49.594Z,7.98
2023-04-16T01:35:18.265Z,7.99
2023-04-16T01:37:46.520Z,8.06
2023-04-16T01:40:15.926Z,7.89
2023-04-16T01:42:43.839Z,7.91
2023-04-16T01:45:12.708Z,8.05
2023-04-16T01:47:41.157Z,8.02
2023-04-16T01:50:10.318Z,8.06
2023-04-16T01:52:38.263Z,7.97
2023-04-16T01:55:06.936Z,7.92
2023-04-16T01:57:39.040Z,8.03
2023-04-16T02:00:10.377Z,8.01
2023-04-16T02:02:41.559Z,7.96
2023-04-16T02:05:10.002Z,7.77
2023-04-16T02:07:37.993Z,7.76
2023-04-16T02:10:07.345Z,7.86
2023-04-16T02:12:35.429Z,7.93
2023-04-16T02:15:05.257Z,8.03
2023-04-16T02:17:33.276Z,8.04
2023-04-16T02:20:02.951Z,8.13
2023-04-16T02:22:31.005Z,7.90
2023-04-16T02:24:59.063Z,8.09
2023-04-16T02:27:27.153Z,7.93
2023-04-16T02:29:55.171Z,8.07
2023-04-16T02:32:24.522Z,8.10
2023-04-16T02:34:52.505Z,8.14
2023-04-16T02:37:20.590Z,8.13
2023-04-16T02:39:49.892Z,8.08
2023-04-16T02:42:17.868Z,8.12
2023-04-16T02:44:45.921Z,8.16
2023-04-16T02:47:13.890Z,7.97
2023-04-16T02:49:43.244Z,7.73
2023-04-16T02:52:15.638Z,7.68
2023-04-16T02:54:43.658Z,7.60
2023-04-16T02:57:11.697Z,7.74
2023-04-16T02:59:39.666Z,7.72
2023-04-16T03:02:07.743Z,7.69
2023-04-16T03:04:35.904Z,7.49
2023-04-16T03:07:05.416Z,7.43
2023-04-16T03:09:33.434Z,7.47
2023-04-16T03:12:01.875Z,7.50
2023-04-16T03:14:33.013Z,7.51
2023-04-16T03:17:00.936Z,7.41
2023-04-16T03:19:29.099Z,7.36
2023-04-16T03:21:57.300Z,7.03
2023-04-16T03:24:26.751Z,6.92
2023-04-16T03:26:54.745Z,6.93
2023-04-16T03:29:22.662Z,6.89
2023-04-16T03:31:50.753Z,7.04
2023-04-16T03:34:18.654Z,7.12
2023-04-16T03:36:46.690Z,7.23
2023-04-16T03:39:14.865Z,7.24
2023-04-16T03:41:44.172Z,7.24
2023-04-16T03:44:12.194Z,7.30
2023-04-16T03:46:40.212Z,7.32
2023-04-16T03:49:08.695Z,7.34
2023-04-16T03:51:36.786Z,7.21
2023-04-16T03:54:04.824Z,7.25
2023-04-16T03:56:32.810Z,7.17
2023-04-16T03:59:02.097Z,7.13
2023-04-16T04:01:30.122Z,7.04
2023-04-16T04:03:58.353Z,6.97
2023-04-16T04:06:26.425Z,6.84
2023-04-16T04:08:54.723Z,6.75
2023-04-16T04:11:22.643Z,6.78
2023-04-16T04:13:50.574Z,6.78
2023-04-16T04:16:20.051Z,6.78
2023-04-16T04:18:48.109Z,6.80
2023-04-16T04:21:16.167Z,6.32
2023-04-16T04:23:44.144Z,6.37
2023-04-16T04:26:12.134Z,6.39
2023-04-16T04:28:40.129Z,6.50
2023-04-16T04:31:08.160Z,6.52
2023-04-16T04:33:37.727Z,6.60
2023-04-16T04:36:06.047Z,6.61
2023-04-16T04:38:36.828Z,6.60
2023-04-16T04:41:04.789Z,6.57
2023-04-16T04:43:32.751Z,6.39
2023-04-16T04:46:01.086Z,6.41
2023-04-16T04:48:29.073Z,6.29
2023-04-16T04:50:58.409Z,6.35
2023-04-16T04:53:26.444Z,6.30
2023-04-16T04:55:57.579Z,6.26
2023-04-16T04:58:33.328Z,6.12
2023-04-16T05:01:01.371Z,5.97
2023-04-16T05:03:29.562Z,6.07
2023-04-16T05:05:59.081Z,5.98
2023-04-16T05:08:27.101Z,6.05
2023-04-16T05:10:55.052Z,6.09
2023-04-16T05:13:23.082Z,6.09
2023-04-16T05:15:51.225Z,6.15
2023-04-16T05:18:19.157Z,6.15
2023-04-16T05:20:47.123Z,6.20
2023-04-16T05:23:16.584Z,6.22
2023-04-16T05:25:44.565Z,6.24
2023-04-16T05:28:12.756Z,6.24
2023-04-16T05:30:40.923Z,5.99
2023-04-16T05:33:08.876Z,6.01
2023-04-16T05:35:36.937Z,5.63
2023-04-16T05:38:05.316Z,5.85
2023-04-16T05:40:36.030Z,6.22
2023-04-16T05:43:06.834Z,6.37
2023-04-16T05:45:39.632Z,6.61
2023-04-16T05:48:08.366Z,6.65
2023-04-16T05:50:36.696Z,6.73
2023-04-16T05:53:07.379Z,6.76
2023-04-16T05:55:37.135Z,6.77
2023-04-16T05:58:05.264Z,7.01
2023-04-16T06:00:33.786Z,7.07
2023-04-16T06:03:02.132Z,7.22
2023-04-16T06:05:36.124Z,7.04
2023-04-16T06:08:04.065Z,6.77
2023-04-16T06:10:32.156Z,7.27
2023-04-16T06:13:01.478Z,7.73
2023-04-16T06:15:29.562Z,8.30
2023-04-16T06:18:00.265Z,8.57
2023-04-16T06:20:29.045Z,9.14
2023-04-16T06:22:57.235Z,9.75
2023-04-16T06:25:25.257Z,10.36
2023-04-16T06:27:53.195Z,10.81
2023-04-16T06:30:22.515Z,11.19
2023-04-16T06:32:50.710Z,11.51
2023-04-16T06:35:20.233Z,11.92
2023-04-16T06:37:48.436Z,11.84
2023-04-16T06:40:16.694Z,12.22
2023-04-16T06:42:45.658Z,12.41
2023-04-16T06:45:14.662Z,12.76
2023-04-16T06:47:44.018Z,13.15
2023-04-16T06:50:12.496Z,13.29
2023-04-16T06:52:40.711Z,13.62
2023-04-16T06:55:09.924Z,13.98
2023-04-16T06:57:38.018Z,14.26
2023-04-16T07:00:07.032Z,14.34
2023-04-16T07:02:35.315Z,14.47
2023-04-16T07:05:05.273Z,14.45
2023-04-16T07:07:33.709Z,14.47
2023-04-16T07:10:01.637Z,14.86
2023-04-16T07:12:29.666Z,15.01
2023-04-16T07:14:57.629Z,14.37
2023-04-16T07:17:28.362Z,13.65
2023-04-16T07:19:56.342Z,14.31
2023-04-16T07:22:25.687Z,15.06
2023-04-16T07:24:53.655Z,15.75
2023-04-16T07:27:21.633Z,16.34
2023-04-16T07:29:50.414Z,16.52
2023-04-16T07:32:18.601Z,16.38
2023-04-16T07:34:46.568Z,16.20
2023-04-16T07:37:14.499Z,16.15
2023-04-16T07:39:43.786Z,16.50
2023-04-16T07:42:11.820Z,17.19
2023-04-16T07:44:40.256Z,17.52
2023-04-16T07:47:08.216Z,17.88
2023-04-16T07:49:36.222Z,18.40
2023-04-16T07:52:04.183Z,18.74
2023-04-16T07:54:32.280Z,18.69
2023-04-16T07:57:01.886Z,18.64
2023-04-16T07:59:30.345Z,18.01
2023-04-16T08:01:58.584Z,18.01
2023-04-16T08:04:27.447Z,17.45
2023-04-16T08:06:55.913Z,16.83
2023-04-16T08:09:25.117Z,16.28
2023-04-16T08:11:53.158Z,14.47
2023-04-16T08:14:22.596Z,13.95
2023-04-16T08:16:51.177Z,13.66
2023-04-16T08:19:19.218Z,13.95
2023-04-16T08:21:49.736Z,13.96
2023-04-16T08:24:17.867Z,14.19
2023-04-16T08:26:45.889Z,14.35
2023-04-16T08:29:13.830Z,14.22
2023-04-16T08:31:43.525Z,13.89
2023-04-16T08:34:12.533Z,13.51
2023-04-16T08:36:42.093Z,13.05
2023-04-16T08:39:10.235Z,13.48
2023-04-16T08:41:42.242Z,13.84
2023-04-16T08:44:12.742Z,13.34
2023-04-16T08:46:44.513Z,13.31
2023-04-16T08:49:18.153Z,13.17
2023-04-16T08:51:52.375Z,13.20
2023-04-16T08:54:32.178Z,13.41
2023-04-16T08:57:01.454Z,13.74
2023-04-16T08:59:31.898Z,13.93
2023-04-16T09:02:02.413Z,13.91
2023-04-16T09:04:30.768Z,13.68
2023-04-16T09:07:00.211Z,13.89
2023-04-16T09:09:28.247Z,13.62
2023-04-16T09:11:57.262Z,13.43
2023-04-16T09:14:25.243Z,13.74
2023-04-16T09:16:54.915Z,13.48
2023-04-16T09:19:24.492Z,13.62
2023-04-16T09:21:52.640Z,13.92
2023-04-16T09:24:21.051Z,13.87
2023-04-16T09:26:49.929Z,13.99
2023-04-16T09:29:35.077Z,14.01
2023-04-16T09:32:04.585Z,13.90
2023-04-16T09:34:55.646Z,13.84
2023-04-16T09:37:24.205Z,13.64
2023-04-16T09:39:57.805Z,13.86
2023-04-16T09:42:28.794Z,14.02
2023-04-16T09:45:00.916Z,14.20
2023-04-16T09:47:41.213Z,14.47
2023-04-16T09:50:18.170Z,14.37
2023-04-16T09:52:49.200Z,14.46
2023-04-16T09:55:17.202Z,14.68
2023-04-16T09:57:45.180Z,14.63
2023-04-16T10:00:14.287Z,14.18
2023-04-16T10:02:42.916Z,14.52
2023-04-16T10:05:18.780Z,14.82
2023-04-16T10:07:48.763Z,14.79
2023-04-16T10:10:16.860Z,14.39
2023-04-16T10:12:44.865Z,14.67
2023-04-16T10:15:12.985Z,14.70
2023-04-16T10:17:41.119Z,14.70
2023-04-16T10:20:10.460Z,14.52
2023-04-16T10:22:40.230Z,14.58
2023-04-16T10:25:09.196Z,14.58
2023-04-16T10:27:38.395Z,14.75
2023-04-16T10:30:08.744Z,15.02
2023-04-16T10:32:38.156Z,13.95
2023-04-16T10:35:07.398Z,14.14
2023-04-16T10:37:35.442Z,14.57
2023-04-16T10:40:23.739Z,15.00
2023-04-16T10:42:56.424Z,15.06
2023-04-16T10:45:30.745Z,15.55
2023-04-16T10:47:58.951Z,15.87
2023-04-16T10:50:36.098Z,15.61
2023-04-16T10:53:20.251Z,15.48
2023-04-16T10:56:23.179Z,15.84
2023-04-16T10:58:51.304Z,16.25
2023-04-16T11:01:19.961Z,15.70
2023-04-16T11:03:48.916Z,15.67
2023-04-16T11:06:18.843Z,15.20
2023-04-16T11:08:54.461Z,14.99
2023-04-16T11:11:25.007Z,15.10
2023-04-16T11:13:57.970Z,15.45
2023-04-16T11:16:27.631Z,15.87
2023-04-16T11:18:57.239Z,15.78
2023-04-16T11:21:25.785Z,16.03
2023-04-16T11:23:54.554Z,15.81
2023-04-16T11:26:26.829Z,15.61
2023-04-16T11:28:56.229Z,15.67
2023-04-16T11:31:24.582Z,15.89
2023-04-16T11:33:52.670Z,15.66
2023-04-16T11:36:20.766Z,15.97
2023-04-16T11:38:48.807Z,15.55
2023-04-16T11:41:21.970Z,16.06
2023-04-16T11:43:51.305Z,16.14
2023-04-16T11:46:27.302Z,16.65
2023-04-16T11:48:56.906Z,16.13
2023-04-16T11:51:24.906Z,15.92
2023-04-16T11:53:54.025Z,15.90
2023-04-16T11:56:28.712Z,15.91
2023-04-16T11:59:12.232Z,15.78
2023-04-16T12:01:42.586Z,15.95
2023-04-16T12:04:10.822Z,16.31
2023-04-16T12:06:39.007Z,15.99
2023-04-16T12:09:26.101Z,16.08
2023-04-16T12:11:54.659Z,16.13
2023-04-16T12:14:24.578Z,16.31
2023-04-16T12:16:52.715Z,16.49
2023-04-16T12:19:23.797Z,16.85
2023-04-16T12:21:54.930Z,16.61
2023-04-16T12:24:27.516Z,16.57
2023-04-16T12:26:57.601Z,17.14
2023-04-16T12:29:28.031Z,17.60
2023-04-16T12:31:56.258Z,17.62
2023-04-16T12:34:28.861Z,17.51
2023-04-16T12:37:12.992Z,17.19
2023-04-16T12:39:41.398Z,16.07
2023-04-16T12:42:11.506Z,15.11
2023-04-16T12:44:40.873Z,15.21
2023-04-16T12:47:08.977Z,15.56
2023-04-16T12:49:39.727Z,16.13
2023-04-16T12:52:07.733Z,16.53
2023-04-16T12:54:35.791Z,16.27
2023-04-16T12:57:03.741Z,16.49
2023-04-16T12:59:31.761Z,16.62
2023-04-16T13:02:02.698Z,16.47
2023-04-16T13:04:31.072Z,15.36
2023-04-16T13:06:59.155Z,15.38
2023-04-16T13:09:27.240Z,15.61
2023-04-16T13:11:55.210Z,15.46
2023-04-16T13:14:23.135Z,15.30
2023-04-16T13:16:53.880Z,15.32
2023-04-16T13:19:25.977Z,15.63
2023-04-16T13:21:54.521Z,16.24
2023-04-16T13:24:23.191Z,16.57
2023-04-16T13:26:52.167Z,16.54
2023-04-16T13:29:20.449Z,16.20
2023-04-16T13:31:48.867Z,16.02
2023-04-16T13:34:16.993Z,15.39
2023-04-16T13:36:46.453Z,15.69
2023-04-16T13:39:14.537Z,15.25
2023-04-16T13:41:42.813Z,14.96
2023-04-16T13:44:10.795Z,15.01
2023-04-16T13:46:38.795Z,15.64
2023-04-16T13:49:06.845Z,15.64
2023-04-16T13:51:34.816Z,15.79
2023-04-16T13:54:04.226Z,16.16
2023-04-16T13:56:32.250Z,16.38
2023-04-16T13:59:02.094Z,16.75
2023-04-16T14:01:30.144Z,16.88
2023-04-16T14:03:59.409Z,17.06
2023-04-16T14:06:28.078Z,16.41
2023-04-16T14:08:56.051Z,16.54
2023-04-16T14:11:25.397Z,16.92
2023-04-16T14:13:53.544Z,16.72
2023-04-16T14:16:21.561Z,16.53
2023-04-16T14:18:49.511Z,16.65
2023-04-16T14:21:17.489Z,16.39
2023-04-16T14:23:45.468Z,16.37
2023-04-16T14:26:16.519Z,16.28
2023-04-16T14:28:46.014Z,16.35
2023-04-16T14:31:13.996Z,16.98
2023-04-16T14:33:41.992Z,17.35
2023-04-16T14:36:10.004Z,17.02
2023-04-16T14:38:38.068Z,17.32
2023-04-16T14:41:06.088Z,17.61
2023-04-16T14:43:34.313Z,17.75
2023-04-16T14:46:06.610Z,17.45
2023-04-16T14:48:34.632Z,17.07
2023-04-16T14:51:02.673Z,16.76
2023-04-16T14:53:30.694Z,16.68
2023-04-16T14:55:59.204Z,17.20
2023-04-16T14:58:27.565Z,17.10
2023-04-16T15:00:55.616Z,17.44
2023-04-16T15:03:25.629Z,17.36
2023-04-16T15:05:55.992Z,16.76
2023-04-16T15:08:24.136Z,16.31
2023-04-16T15:10:52.799Z,15.68
2023-04-16T15:13:20.739Z,16.48
2023-04-16T15:15:49.006Z,16.52
2023-04-16T15:18:17.864Z,16.88
2023-04-16T15:20:47.276Z,16.97
2023-04-16T15:23:18.142Z,17.15
2023-04-16T15:25:46.071Z,17.03
2023-04-16T15:28:14.037Z,16.95
2023-04-16T15:30:42.679Z,16.83
2023-04-16T15:33:13.827Z,16.71
2023-04-16T15:35:42.212Z,16.77
2023-04-16T15:38:11.662Z,16.82
2023-04-16T15:40:39.680Z,16.87
2023-04-16T15:43:10.212Z,17.29
2023-04-16T15:45:38.652Z,16.99
2023-04-16T15:48:07.392Z,17.09
2023-04-16T15:50:35.904Z,16.92
2023-04-16T15:53:04.798Z,16.99
2023-04-16T15:55:34.189Z,16.72
2023-04-16T15:58:02.176Z,16.44
2023-04-16T16:00:30.682Z,16.01
2023-04-16T16:02:58.963Z,16.05
2023-04-16T16:05:27.259Z,16.41
2023-04-16T16:07:58.834Z,16.75
2023-04-16T16:10:26.880Z,16.98
2023-04-16T16:12:57.378Z,17.00
2023-04-16T16:15:25.299Z,17.08
2023-04-16T16:17:53.614Z,17.34
2023-04-16T16:20:22.759Z,17.44
2023-04-16T16:22:53.070Z,17.02
2023-04-16T16:25:21.509Z,16.94
2023-04-16T16:27:49.453Z,16.89
2023-04-16T16:30:18.791Z,16.92
2023-04-16T16:32:46.762Z,16.22
2023-04-16T16:35:14.980Z,16.05
2023-04-16T16:37:43.030Z,16.42
2023-04-16T16:40:11.911Z,16.88
2023-04-16T16:42:39.931Z,16.99
2023-04-16T16:45:08.993Z,17.24
2023-04-16T16:47:38.417Z,17.37
2023-04-16T16:50:07.537Z,17.17
2023-04-16T16:52:35.560Z,17.07
2023-04-16T16:55:04.125Z,16.99
2023-04-16T16:57:32.167Z,16.99
2023-04-16T17:00:00.179Z,17.06
2023-04-16T17:02:28.303Z,17.12
2023-04-16T17:04:59.063Z,17.06
2023-04-16T17:07:27.465Z,17.06
2023-04-16T17:09:55.418Z,16.82
2023-04-16T17:12:24.337Z,16.67
2023-04-16T17:14:52.435Z,16.64
2023-04-16T17:17:20.649Z,16.63
2023-04-16T17:19:48.634Z,16.74
2023-04-16T17:22:18.002Z,16.69
2023-04-16T17:24:45.962Z,16.46
2023-04-16T17:27:13.924Z,16.34
2023-04-16T17:29:42.002Z,16.53
2023-04-16T17:32:10.101Z,16.60
2023-04-16T17:34:38.115Z,16.47
2023-04-16T17:37:06.169Z,16.39
2023-04-16T17:39:35.670Z,16.12
2023-04-16T17:42:04.080Z,15.92
2023-04-16T17:44:32.186Z,16.00
2023-04-16T17:47:00.218Z,16.01
2023-04-16T17:49:28.151Z,15.75
2023-04-16T17:51:56.114Z,15.76
2023-04-16T17:54:24.166Z,15.93
2023-04-16T17:56:53.486Z,15.95
2023-04-16T17:59:21.449Z,15.67
2023-04-16T18:01:49.827Z,15.66
2023-04-16T18:04:20.174Z,15.69
2023-04-16T18:06:48.159Z,15.67
2023-04-16T18:09:16.167Z,15.48
2023-04-16T18:11:44.161Z,15.46
2023-04-16T18:14:16.918Z,15.51
2023-04-16T18:16:47.125Z,15.47
2023-04-16T18:19:15.961Z,15.23
2023-04-16T18:21:44.252Z,14.96
2023-04-16T18:24:12.601Z,15.04
2023-04-16T18:26:41.310Z,15.01
2023-04-16T18:29:09.512Z,15.12
2023-04-16T18:31:39.062Z,15.12
2023-04-16T18:34:10.183Z,15.08
2023-04-16T18:36:41.079Z,14.94
2023-04-16T18:39:09.488Z,14.89
2023-04-16T18:41:37.477Z,14.84
2023-04-16T18:44:05.436Z,14.67
2023-04-16T18:46:33.409Z,14.62
2023-04-16T18:49:05.567Z,14.54
2023-04-16T18:51:35.772Z,14.47
2023-04-16T18:54:03.852Z,14.32
2023-04-16T18:56:31.837Z,14.23
2023-04-16T18:58:59.760Z,14.12
2023-04-16T19:01:27.916Z,14.03
2023-04-16T19:03:56.095Z,13.93
2023-04-16T19:06:29.307Z,13.82
2023-04-16T19:08:57.288Z,13.73
2023-04-16T19:11:25.340Z,13.64
2023-04-16T19:13:53.298Z,13.59
2023-04-16T19:16:21.358Z,13.51
2023-04-16T19:18:49.353Z,13.47
2023-04-16T19:21:17.280Z,13.37
2023-04-16T19:23:46.885Z,13.29
2023-04-16T19:26:14.858Z,13.14
2023-04-16T19:28:43.470Z,13.12
2023-04-16T19:31:11.576Z,13.12
2023-04-16T19:33:39.547Z,13.05
2023-04-16T19:36:07.768Z,13.01
2023-04-16T19:38:35.712Z,12.95
2023-04-16T19:41:05.047Z,12.91
2023-04-16T19:43:32.966Z,12.81
2023-04-16T19:46:00.928Z,12.75
2023-04-16T19:48:31.827Z,12.73
2023-04-16T19:51:03.210Z,12.67
2023-04-16T19:53:31.220Z,12.63
2023-04-16T19:55:59.137Z,12.58
2023-04-16T19:58:28.472Z,12.51
2023-04-16T20:00:56.510Z,12.43
2023-04-16T20:03:24.668Z,12.37
2023-04-16T20:05:52.652Z,12.31
2023-04-16T20:08:20.596Z,12.31
2023-04-16T20:10:48.577Z,12.28
2023-04-16T20:13:18.532Z,12.24
2023-04-16T20:15:48.324Z,12.19
2023-04-16T20:18:16.302Z,12.06
2023-04-16T20:20:44.212Z,12.02
2023-04-16T20:23:12.244Z,12.00
2023-04-16T20:25:42.547Z,12.03
2023-04-16T20:28:10.550Z,12.01
2023-04-16T20:30:39.775Z,11.92
2023-04-16T20:33:09.810Z,11.92
2023-04-16T20:35:39.895Z,11.99
2023-04-16T20:38:07.853Z,12.01
2023-04-16T20:40:38.104Z,12.05
2023-04-16T20:43:10.148Z,12.03
2023-04-16T20:45:40.967Z,12.09
2023-04-16T20:48:11.919Z,12.07
2023-04-16T20:50:39.938Z,12.03
2023-04-16T20:53:07.968Z,11.98
2023-04-16T20:55:38.288Z,11.88
2023-04-16T20:58:06.488Z,11.88
2023-04-16T21:00:34.405Z,11.87
2023-04-16T21:03:02.444Z,11.81
2023-04-16T21:05:33.439Z,11.79
2023-04-16T21:08:01.395Z,11.73
2023-04-16T21:10:29.379Z,11.73
2023-04-16T21:12:57.322Z,11.70
2023-04-16T21:15:27.610Z,11.68
2023-04-16T21:17:55.570Z,11.64
2023-04-16T21:20:23.583Z,11.66
2023-04-16T21:22:56.856Z,11.67
2023-04-16T21:25:25.009Z,11.69
2023-04-16T21:27:53.127Z,11.70
2023-04-16T21:30:21.298Z,11.73
2023-04-16T21:32:49.518Z,11.79
2023-04-16T21:35:17.560Z,11.84
2023-04-16T21:37:48.191Z,11.90
2023-04-16T21:40:17.763Z,11.90
2023-04-16T21:42:45.751Z,11.89
2023-04-16T21:45:14.535Z,11.90
2023-04-16T21:47:42.544Z,11.92
2023-04-16T21:50:11.287Z,11.86
2023-04-16T21:52:40.903Z,11.89
2023-04-16T21:55:10.349Z,11.85
2023-04-16T21:57:42.705Z,11.81
2023-04-16T22:00:14.022Z,11.72
2023-04-16T22:02:43.028Z,11.71
2023-04-16T22:05:12.187Z,11.67
2023-04-16T22:07:40.595Z,11.67
2023-04-16T22:10:10.188Z,11.61
2023-04-16T22:12:40.011Z,11.53
2023-04-16T22:15:10.482Z,11.47
2023-04-16T22:17:38.836Z,11.29
2023-04-16T22:20:09.407Z,11.09
2023-04-16T22:22:37.434Z,11.16
2023-04-16T22:25:06.175Z,11.12
2023-04-16T22:27:34.585Z,11.14
2023-04-16T22:30:02.958Z,11.01
2023-04-16T22:32:33.231Z,11.08
2023-04-16T22:35:02.012Z,11.14
2023-04-16T22:40:22.925Z,10.92
2023-04-16T22:42:51.295Z,11.00
2023-04-16T22:45:19.342Z,10.94
2023-04-16T22:47:48.720Z,11.03
2023-04-16T22:50:16.960Z,11.02
2023-04-16T22:52:44.949Z,10.94
2023-04-16T22:55:12.891Z,10.90
2023-04-16T22:57:41.036Z,10.81
2023-04-16T23:00:15.735Z,10.82
2023-04-16T23:02:43.830Z,10.69
2023-04-16T23:05:13.254Z,10.51
2023-04-16T23:07:41.394Z,10.63
2023-04-16T23:10:10.040Z,10.57
2023-04-16T23:12:38.360Z,10.47
2023-04-16T23:15:07.476Z,10.53
2023-04-16T23:17:38.098Z,10.47
2023-04-16T23:20:10.129Z,10.53
2023-04-16T23:22:39.432Z,10.40
2023-04-16T23:25:08.963Z,10.46
2023-04-16T23:27:37.506Z,10.46
2023-04-16T23:30:06.912Z,10.16
2023-04-16T23:32:35.092Z,10.06
2023-04-16T23:35:03.211Z,10.13
2023-04-16T23:37:31.236Z,10.24
2023-04-16T23:40:00.591Z,10.33
2023-04-16T23:42:31.082Z,10.33
2023-04-16T23:44:59.071Z,10.29
2023-04-16T23:47:27.015Z,10.20
2023-04-16T23:49:54.941Z,10.21
2023-04-16T23:52:22.884Z,10.08
2023-04-16T23:54:53.424Z,10.06
2023-04-16T23:57:22.808Z,10.01
2023-04-16T23:59:53.694Z,9.95
